sensor_id;sensor_type;location;lat;lon;timestamp;temperature;humidity
10911;DHT22;5508;49.150;11.030;2023-03-30T00:01:49;10.60;77.90
10911;DHT22;5508;49.150;11.030;2023-03-30T00:04:50;10.50;77.60
10911;DHT22;5508;49.150;11.030;2023-03-30T00:07:51;10.60;77.10
10911;DHT22;5508;49.150;11.030;2023-03-30T00:10:52;10.60;77.00
10911;DHT22;5508;49.150;11.030;2023-03-30T00:13:55;10.50;77.50
10911;DHT22;5508;49.150;11.030;2023-03-30T00:16:55;10.70;77.10
10911;DHT22;5508;49.150;11.030;2023-03-30T00:19:56;10.70;77.40
10911;DHT22;5508;49.150;11.030;2023-03-30T00:22:57;10.60;77.50
10911;DHT22;5508;49.150;11.030;2023-03-30T00:25:58;10.60;77.80
10911;DHT22;5508;49.150;11.030;2023-03-30T00:28:59;10.70;77.50
10911;DHT22;5508;49.150;11.030;2023-03-30T00:32:00;10.50;78.10
10911;DHT22;5508;49.150;11.030;2023-03-30T00:35:00;10.60;78.10
10911;DHT22;5508;49.150;11.030;2023-03-30T00:38:01;10.60;78.20
10911;DHT22;5508;49.150;11.030;2023-03-30T00:41:02;10.70;78.10
10911;DHT22;5508;49.150;11.030;2023-03-30T00:45:00;10.70;77.30
10911;DHT22;5508;49.150;11.030;2023-03-30T00:47:28;10.80;76.90
10911;DHT22;5508;49.150;11.030;2023-03-30T00:53:45;10.80;77.30
10911;DHT22;5508;49.150;11.030;2023-03-30T00:56:47;10.80;78.60
10911;DHT22;5508;49.150;11.030;2023-03-30T00:59:48;10.80;77.80
10911;DHT22;5508;49.150;11.030;2023-03-30T01:02:55;10.80;78.30
10911;DHT22;5508;49.150;11.030;2023-03-30T01:06:00;10.80;78.60
10911;DHT22;5508;49.150;11.030;2023-03-30T01:09:02;10.70;79.00
10911;DHT22;5508;49.150;11.030;2023-03-30T01:12:02;10.70;79.00
10911;DHT22;5508;49.150;11.030;2023-03-30T01:15:08;10.80;78.50
10911;DHT22;5508;49.150;11.030;2023-03-30T01:18:28;11.00;78.30
10911;DHT22;5508;49.150;11.030;2023-03-30T01:28:49;11.00;77.90
10911;DHT22;5508;49.150;11.030;2023-03-30T01:32:25;10.90;78.30
10911;DHT22;5508;49.150;11.030;2023-03-30T01:42:19;10.70;80.00
10911;DHT22;5508;49.150;11.030;2023-03-30T01:48:49;11.00;78.80
10911;DHT22;5508;49.150;11.030;2023-03-30T01:58:38;11.10;82.30
10911;DHT22;5508;49.150;11.030;2023-03-30T02:01:43;11.10;83.30
10911;DHT22;5508;49.150;11.030;2023-03-30T02:04:51;11.00;82.90
10911;DHT22;5508;49.150;11.030;2023-03-30T02:07:56;10.90;85.30
10911;DHT22;5508;49.150;11.030;2023-03-30T02:11:00;10.90;86.40
10911;DHT22;5508;49.150;11.030;2023-03-30T02:14:01;10.80;87.50
10911;DHT22;5508;49.150;11.030;2023-03-30T02:17:22;10.70;89.10
10911;DHT22;5508;49.150;11.030;2023-03-30T02:20:24;10.60;89.20
10911;DHT22;5508;49.150;11.030;2023-03-30T02:23:29;10.70;88.50
10911;DHT22;5508;49.150;11.030;2023-03-30T02:26:34;10.70;88.70
10911;DHT22;5508;49.150;11.030;2023-03-30T02:29:36;10.70;88.30
10911;DHT22;5508;49.150;11.030;2023-03-30T02:32:49;10.70;88.90
10911;DHT22;5508;49.150;11.030;2023-03-30T02:45:57;10.80;90.10
10911;DHT22;5508;49.150;11.030;2023-03-30T02:52:23;10.70;90.10
10911;DHT22;5508;49.150;11.030;2023-03-30T02:59:02;10.90;90.60
10911;DHT22;5508;49.150;11.030;2023-03-30T03:02:09;11.00;89.80
10911;DHT22;5508;49.150;11.030;2023-03-30T03:05:11;11.00;90.60
10911;DHT22;5508;49.150;11.030;2023-03-30T03:08:16;10.90;91.30
10911;DHT22;5508;49.150;11.030;2023-03-30T03:11:18;10.90;91.70
10911;DHT22;5508;49.150;11.030;2023-03-30T03:14:18;10.90;91.40
10911;DHT22;5508;49.150;11.030;2023-03-30T03:17:20;10.80;92.00
10911;DHT22;5508;49.150;11.030;2023-03-30T03:20:21;10.90;91.50
10911;DHT22;5508;49.150;11.030;2023-03-30T03:23:22;10.80;92.70
10911;DHT22;5508;49.150;11.030;2023-03-30T03:26:23;10.90;93.40
10911;DHT22;5508;49.150;11.030;2023-03-30T03:29:23;11.00;92.80
10911;DHT22;5508;49.150;11.030;2023-03-30T03:32:25;11.00;92.50
10911;DHT22;5508;49.150;11.030;2023-03-30T03:35:26;11.00;92.80
10911;DHT22;5508;49.150;11.030;2023-03-30T03:38:27;11.00;93.80
10911;DHT22;5508;49.150;11.030;2023-03-30T03:41:28;11.00;93.80
10911;DHT22;5508;49.150;11.030;2023-03-30T03:44:28;11.10;93.60
10911;DHT22;5508;49.150;11.030;2023-03-30T03:47:30;11.10;94.30
10911;DHT22;5508;49.150;11.030;2023-03-30T03:50:31;11.10;95.00
10911;DHT22;5508;49.150;11.030;2023-03-30T03:53:32;11.20;94.00
10911;DHT22;5508;49.150;11.030;2023-03-30T03:56:33;11.20;93.60
10911;DHT22;5508;49.150;11.030;2023-03-30T03:59:33;11.20;93.10
10911;DHT22;5508;49.150;11.030;2023-03-30T04:02:34;11.10;93.50
10911;DHT22;5508;49.150;11.030;2023-03-30T04:05:35;11.10;92.90
10911;DHT22;5508;49.150;11.030;2023-03-30T04:08:36;11.10;93.40
10911;DHT22;5508;49.150;11.030;2023-03-30T04:11:36;11.00;93.30
10911;DHT22;5508;49.150;11.030;2023-03-30T04:14:37;11.20;91.90
10911;DHT22;5508;49.150;11.030;2023-03-30T04:17:37;11.20;91.60
10911;DHT22;5508;49.150;11.030;2023-03-30T04:20:38;11.20;91.60
10911;DHT22;5508;49.150;11.030;2023-03-30T04:23:38;11.20;91.70
10911;DHT22;5508;49.150;11.030;2023-03-30T04:26:45;11.10;92.60
10911;DHT22;5508;49.150;11.030;2023-03-30T04:29:48;11.00;92.40
10911;DHT22;5508;49.150;11.030;2023-03-30T04:32:48;11.10;92.70
10911;DHT22;5508;49.150;11.030;2023-03-30T04:36:02;11.10;92.10
10911;DHT22;5508;49.150;11.030;2023-03-30T04:39:03;11.20;92.50
10911;DHT22;5508;49.150;11.030;2023-03-30T04:42:06;11.10;93.40
10911;DHT22;5508;49.150;11.030;2023-03-30T04:45:07;11.20;93.70
10911;DHT22;5508;49.150;11.030;2023-03-30T04:48:09;11.10;94.60
10911;DHT22;5508;49.150;11.030;2023-03-30T04:51:09;11.00;95.80
10911;DHT22;5508;49.150;11.030;2023-03-30T04:54:10;10.90;97.50
10911;DHT22;5508;49.150;11.030;2023-03-30T04:57:12;10.90;97.70
10911;DHT22;5508;49.150;11.030;2023-03-30T05:00:13;10.90;99.90
10911;DHT22;5508;49.150;11.030;2023-03-30T05:03:14;10.80;99.90
10911;DHT22;5508;49.150;11.030;2023-03-30T05:06:15;10.70;99.90
10911;DHT22;5508;49.150;11.030;2023-03-30T05:09:16;10.70;99.90
10911;DHT22;5508;49.150;11.030;2023-03-30T05:12:16;10.60;99.90
10911;DHT22;5508;49.150;11.030;2023-03-30T05:15:17;10.50;99.90
10911;DHT22;5508;49.150;11.030;2023-03-30T05:18:17;10.50;99.90
10911;DHT22;5508;49.150;11.030;2023-03-30T05:21:18;10.50;99.90
10911;DHT22;5508;49.150;11.030;2023-03-30T05:24:18;10.40;99.90
10911;DHT22;5508;49.150;11.030;2023-03-30T05:27:19;10.40;99.90
10911;DHT22;5508;49.150;11.030;2023-03-30T05:30:20;10.40;99.90
10911;DHT22;5508;49.150;11.030;2023-03-30T05:33:21;10.40;99.90
10911;DHT22;5508;49.150;11.030;2023-03-30T05:36:21;10.30;99.90
10911;DHT22;5508;49.150;11.030;2023-03-30T05:39:22;10.20;99.90
10911;DHT22;5508;49.150;11.030;2023-03-30T05:42:23;10.20;99.90
10911;DHT22;5508;49.150;11.030;2023-03-30T05:45:23;10.20;99.90
10911;DHT22;5508;49.150;11.030;2023-03-30T05:48:24;10.20;99.90
10911;DHT22;5508;49.150;11.030;2023-03-30T05:51:24;10.20;99.90
10911;DHT22;5508;49.150;11.030;2023-03-30T05:54:25;10.10;99.90
10911;DHT22;5508;49.150;11.030;2023-03-30T05:57:26;10.10;99.90
10911;DHT22;5508;49.150;11.030;2023-03-30T06:00:27;10.10;99.90
10911;DHT22;5508;49.150;11.030;2023-03-30T06:03:32;10.10;99.90
10911;DHT22;5508;49.150;11.030;2023-03-30T06:06:33;10.10;99.90
10911;DHT22;5508;49.150;11.030;2023-03-30T06:09:33;10.10;99.90
10911;DHT22;5508;49.150;11.030;2023-03-30T06:12:34;10.20;99.90
10911;DHT22;5508;49.150;11.030;2023-03-30T06:15:35;10.30;99.90
10911;DHT22;5508;49.150;11.030;2023-03-30T06:18:36;10.30;99.90
10911;DHT22;5508;49.150;11.030;2023-03-30T06:21:37;10.30;99.90
10911;DHT22;5508;49.150;11.030;2023-03-30T06:24:38;10.30;99.90
10911;DHT22;5508;49.150;11.030;2023-03-30T06:27:38;10.40;99.90
10911;DHT22;5508;49.150;11.030;2023-03-30T06:30:39;10.40;99.90
10911;DHT22;5508;49.150;11.030;2023-03-30T06:33:40;10.40;99.90
10911;DHT22;5508;49.150;11.030;2023-03-30T06:36:40;10.50;99.90
10911;DHT22;5508;49.150;11.030;2023-03-30T06:39:41;10.50;99.90
10911;DHT22;5508;49.150;11.030;2023-03-30T06:42:42;10.60;99.90
10911;DHT22;5508;49.150;11.030;2023-03-30T06:45:52;10.60;99.90
10911;DHT22;5508;49.150;11.030;2023-03-30T06:48:53;10.70;99.90
10911;DHT22;5508;49.150;11.030;2023-03-30T06:51:53;10.70;99.90
10911;DHT22;5508;49.150;11.030;2023-03-30T06:54:54;10.90;99.90
10911;DHT22;5508;49.150;11.030;2023-03-30T06:57:54;11.00;99.90
10911;DHT22;5508;49.150;11.030;2023-03-30T07:00:55;11.10;99.90
10911;DHT22;5508;49.150;11.030;2023-03-30T07:03:56;11.30;99.90
10911;DHT22;5508;49.150;11.030;2023-03-30T07:06:56;11.30;99.90
10911;DHT22;5508;49.150;11.030;2023-03-30T07:09:57;11.30;99.90
10911;DHT22;5508;49.150;11.030;2023-03-30T07:12:58;11.40;99.90
10911;DHT22;5508;49.150;11.030;2023-03-30T07:15:58;11.40;99.90
10911;DHT22;5508;49.150;11.030;2023-03-30T07:18:59;11.30;99.90
10911;DHT22;5508;49.150;11.030;2023-03-30T07:21:59;11.20;99.90
10911;DHT22;5508;49.150;11.030;2023-03-30T07:25:00;11.30;99.90
10911;DHT22;5508;49.150;11.030;2023-03-30T07:28:01;11.40;99.90
10911;DHT22;5508;49.150;11.030;2023-03-30T07:31:11;11.40;99.90
10911;DHT22;5508;49.150;11.030;2023-03-30T07:34:14;11.40;99.90
10911;DHT22;5508;49.150;11.030;2023-03-30T07:37:15;11.30;99.90
10911;DHT22;5508;49.150;11.030;2023-03-30T07:40:16;11.30;99.90
10911;DHT22;5508;49.150;11.030;2023-03-30T07:43:17;11.20;99.90
10911;DHT22;5508;49.150;11.030;2023-03-30T07:46:17;11.20;99.90
10911;DHT22;5508;49.150;11.030;2023-03-30T07:49:18;11.20;99.90
10911;DHT22;5508;49.150;11.030;2023-03-30T07:52:18;11.20;99.90
10911;DHT22;5508;49.150;11.030;2023-03-30T07:55:19;11.20;99.90
10911;DHT22;5508;49.150;11.030;2023-03-30T07:58:20;11.10;99.90
10911;DHT22;5508;49.150;11.030;2023-03-30T08:01:21;11.20;99.90
10911;DHT22;5508;49.150;11.030;2023-03-30T08:04:21;11.10;99.90
10911;DHT22;5508;49.150;11.030;2023-03-30T08:07:23;11.10;99.90
10911;DHT22;5508;49.150;11.030;2023-03-30T08:10:26;11.00;99.90
10911;DHT22;5508;49.150;11.030;2023-03-30T08:13:27;11.10;99.90
10911;DHT22;5508;49.150;11.030;2023-03-30T08:16:28;11.00;99.90
10911;DHT22;5508;49.150;11.030;2023-03-30T08:19:28;11.10;99.90
10911;DHT22;5508;49.150;11.030;2023-03-30T08:22:29;11.10;99.90
10911;DHT22;5508;49.150;11.030;2023-03-30T08:25:30;11.10;99.90
10911;DHT22;5508;49.150;11.030;2023-03-30T08:28:30;11.00;99.90
10911;DHT22;5508;49.150;11.030;2023-03-30T08:31:31;11.00;99.90
10911;DHT22;5508;49.150;11.030;2023-03-30T08:34:32;11.00;99.90
10911;DHT22;5508;49.150;11.030;2023-03-30T08:37:32;11.10;99.90
10911;DHT22;5508;49.150;11.030;2023-03-30T08:40:38;11.10;99.90
10911;DHT22;5508;49.150;11.030;2023-03-30T08:43:50;11.00;99.90
10911;DHT22;5508;49.150;11.030;2023-03-30T08:46:53;11.00;99.90
10911;DHT22;5508;49.150;11.030;2023-03-30T08:50:13;10.90;99.90
10911;DHT22;5508;49.150;11.030;2023-03-30T08:53:15;10.90;99.90
10911;DHT22;5508;49.150;11.030;2023-03-30T08:56:20;10.80;99.90
10911;DHT22;5508;49.150;11.030;2023-03-30T08:59:38;10.80;99.90
10911;DHT22;5508;49.150;11.030;2023-03-30T09:02:45;10.80;99.90
10911;DHT22;5508;49.150;11.030;2023-03-30T09:09:41;10.80;99.90
10911;DHT22;5508;49.150;11.030;2023-03-30T09:12:53;10.80;99.90
10911;DHT22;5508;49.150;11.030;2023-03-30T09:20:29;10.90;99.90
10911;DHT22;5508;49.150;11.030;2023-03-30T09:23:11;10.90;99.90
10911;DHT22;5508;49.150;11.030;2023-03-30T09:26:38;11.00;99.90
10911;DHT22;5508;49.150;11.030;2023-03-30T09:29:52;11.00;99.90
10911;DHT22;5508;49.150;11.030;2023-03-30T09:33:02;11.10;99.90
10911;DHT22;5508;49.150;11.030;2023-03-30T09:36:10;11.20;99.90
10911;DHT22;5508;49.150;11.030;2023-03-30T09:39:19;11.10;99.90
10911;DHT22;5508;49.150;11.030;2023-03-30T09:45:31;11.10;99.90
10911;DHT22;5508;49.150;11.030;2023-03-30T09:48:51;11.00;99.90
10911;DHT22;5508;49.150;11.030;2023-03-30T09:52:19;11.10;99.90
10911;DHT22;5508;49.150;11.030;2023-03-30T09:58:32;11.20;99.90
10911;DHT22;5508;49.150;11.030;2023-03-30T10:01:36;11.30;99.90
10911;DHT22;5508;49.150;11.030;2023-03-30T10:08:02;11.50;99.90
10911;DHT22;5508;49.150;11.030;2023-03-30T10:11:03;11.70;99.90
10911;DHT22;5508;49.150;11.030;2023-03-30T10:17:29;12.10;99.90
10911;DHT22;5508;49.150;11.030;2023-03-30T10:20:35;12.00;99.90
10911;DHT22;5508;49.150;11.030;2023-03-30T10:23:39;11.90;99.90
10911;DHT22;5508;49.150;11.030;2023-03-30T10:26:45;11.80;99.90
10911;DHT22;5508;49.150;11.030;2023-03-30T10:29:47;11.60;99.90
10911;DHT22;5508;49.150;11.030;2023-03-30T10:32:51;11.50;99.90
10911;DHT22;5508;49.150;11.030;2023-03-30T10:35:53;11.50;99.90
10911;DHT22;5508;49.150;11.030;2023-03-30T10:39:04;11.60;99.90
10911;DHT22;5508;49.150;11.030;2023-03-30T10:42:06;11.70;99.90
10911;DHT22;5508;49.150;11.030;2023-03-30T10:45:15;11.90;99.90
10911;DHT22;5508;49.150;11.030;2023-03-30T10:48:22;11.90;99.90
10911;DHT22;5508;49.150;11.030;2023-03-30T10:51:38;11.90;99.90
10911;DHT22;5508;49.150;11.030;2023-03-30T10:54:48;11.90;99.90
10911;DHT22;5508;49.150;11.030;2023-03-30T11:04:33;11.90;99.90
10911;DHT22;5508;49.150;11.030;2023-03-30T11:07:42;11.90;99.90
10911;DHT22;5508;49.150;11.030;2023-03-30T11:10:47;11.80;99.90
10911;DHT22;5508;49.150;11.030;2023-03-30T11:13:58;11.80;99.90
10911;DHT22;5508;49.150;11.030;2023-03-30T11:17:06;11.90;99.90
10911;DHT22;5508;49.150;11.030;2023-03-30T11:20:27;11.90;99.90
10911;DHT22;5508;49.150;11.030;2023-03-30T11:27:32;11.80;99.90
10911;DHT22;5508;49.150;11.030;2023-03-30T11:30:28;11.80;99.90
10911;DHT22;5508;49.150;11.030;2023-03-30T11:33:44;11.90;99.90
10911;DHT22;5508;49.150;11.030;2023-03-30T11:40:11;12.00;99.90
10911;DHT22;5508;49.150;11.030;2023-03-30T11:43:15;11.90;99.90
10911;DHT22;5508;49.150;11.030;2023-03-30T11:46:35;11.70;99.90
10911;DHT22;5508;49.150;11.030;2023-03-30T11:56:57;11.40;99.90
10911;DHT22;5508;49.150;11.030;2023-03-30T12:06:40;11.70;99.90
10911;DHT22;5508;49.150;11.030;2023-03-30T12:09:51;11.60;99.90
10911;DHT22;5508;49.150;11.030;2023-03-30T12:12:53;11.60;99.90
10911;DHT22;5508;49.150;11.030;2023-03-30T12:16:06;11.60;99.90
10911;DHT22;5508;49.150;11.030;2023-03-30T12:19:16;11.60;99.90
10911;DHT22;5508;49.150;11.030;2023-03-30T12:22:31;11.90;99.90
10911;DHT22;5508;49.150;11.030;2023-03-30T12:29:12;12.10;99.90
10911;DHT22;5508;49.150;11.030;2023-03-30T12:32:26;12.10;99.90
10911;DHT22;5508;49.150;11.030;2023-03-30T12:36:02;12.20;99.50
10911;DHT22;5508;49.150;11.030;2023-03-30T12:39:09;12.40;98.70
10911;DHT22;5508;49.150;11.030;2023-03-30T12:42:25;12.80;98.30
10911;DHT22;5508;49.150;11.030;2023-03-30T12:45:30;12.70;95.20
10911;DHT22;5508;49.150;11.030;2023-03-30T12:52:13;13.10;92.00
10911;DHT22;5508;49.150;11.030;2023-03-30T12:59:00;14.00;85.90
10911;DHT22;5508;49.150;11.030;2023-03-30T13:05:42;13.70;87.90
10911;DHT22;5508;49.150;11.030;2023-03-30T13:08:43;13.60;85.10
10911;DHT22;5508;49.150;11.030;2023-03-30T13:15:17;13.60;86.40
10911;DHT22;5508;49.150;11.030;2023-03-30T13:21:46;13.50;87.20
10911;DHT22;5508;49.150;11.030;2023-03-30T13:24:54;13.60;86.60
10911;DHT22;5508;49.150;11.030;2023-03-30T13:27:58;13.70;84.50
10911;DHT22;5508;49.150;11.030;2023-03-30T13:35:02;13.30;85.50
10911;DHT22;5508;49.150;11.030;2023-03-30T13:41:37;13.50;85.20
10911;DHT22;5508;49.150;11.030;2023-03-30T13:45:01;13.50;84.60
10911;DHT22;5508;49.150;11.030;2023-03-30T13:51:38;13.70;84.30
10911;DHT22;5508;49.150;11.030;2023-03-30T13:54:42;13.70;85.70
10911;DHT22;5508;49.150;11.030;2023-03-30T13:57:43;13.70;84.00
10911;DHT22;5508;49.150;11.030;2023-03-30T14:03:55;13.60;85.10
10911;DHT22;5508;49.150;11.030;2023-03-30T14:06:56;13.60;86.40
10911;DHT22;5508;49.150;11.030;2023-03-30T14:10:13;13.60;84.30
10911;DHT22;5508;49.150;11.030;2023-03-30T14:13:14;13.80;83.30
10911;DHT22;5508;49.150;11.030;2023-03-30T14:16:21;14.10;81.30
10911;DHT22;5508;49.150;11.030;2023-03-30T14:19:37;14.10;81.20
10911;DHT22;5508;49.150;11.030;2023-03-30T14:22:41;14.10;80.70
10911;DHT22;5508;49.150;11.030;2023-03-30T14:25:42;14.60;80.10
10911;DHT22;5508;49.150;11.030;2023-03-30T14:28:44;14.70;78.60
10911;DHT22;5508;49.150;11.030;2023-03-30T14:31:48;14.70;76.80
10911;DHT22;5508;49.150;11.030;2023-03-30T14:34:51;14.70;76.00
10911;DHT22;5508;49.150;11.030;2023-03-30T14:37:51;15.00;76.80
10911;DHT22;5508;49.150;11.030;2023-03-30T14:40:53;15.20;74.10
10911;DHT22;5508;49.150;11.030;2023-03-30T14:43:56;14.60;74.30
10911;DHT22;5508;49.150;11.030;2023-03-30T14:46:58;14.20;76.90
10911;DHT22;5508;49.150;11.030;2023-03-30T14:50:01;14.30;76.90
10911;DHT22;5508;49.150;11.030;2023-03-30T14:53:03;14.10;74.50
10911;DHT22;5508;49.150;11.030;2023-03-30T14:56:04;14.00;74.70
10911;DHT22;5508;49.150;11.030;2023-03-30T14:59:05;13.90;76.70
10911;DHT22;5508;49.150;11.030;2023-03-30T15:02:18;13.70;75.70
10911;DHT22;5508;49.150;11.030;2023-03-30T15:05:23;13.70;76.90
10911;DHT22;5508;49.150;11.030;2023-03-30T15:08:25;13.40;78.90
10911;DHT22;5508;49.150;11.030;2023-03-30T15:11:27;13.00;81.90
10911;DHT22;5508;49.150;11.030;2023-03-30T15:14:34;12.80;83.40
10911;DHT22;5508;49.150;11.030;2023-03-30T15:17:38;12.70;85.30
10911;DHT22;5508;49.150;11.030;2023-03-30T15:20:41;12.60;85.00
10911;DHT22;5508;49.150;11.030;2023-03-30T15:23:44;12.50;87.60
10911;DHT22;5508;49.150;11.030;2023-03-30T15:26:47;12.60;84.50
10911;DHT22;5508;49.150;11.030;2023-03-30T15:29:49;12.50;84.90
10911;DHT22;5508;49.150;11.030;2023-03-30T15:32:54;12.60;82.40
10911;DHT22;5508;49.150;11.030;2023-03-30T15:35:55;12.50;84.90
10911;DHT22;5508;49.150;11.030;2023-03-30T15:38:57;12.30;83.60
10911;DHT22;5508;49.150;11.030;2023-03-30T15:42:05;12.10;84.20
10911;DHT22;5508;49.150;11.030;2023-03-30T15:45:11;12.00;83.30
10911;DHT22;5508;49.150;11.030;2023-03-30T15:48:12;11.90;83.70
10911;DHT22;5508;49.150;11.030;2023-03-30T15:51:28;11.90;83.70
10911;DHT22;5508;49.150;11.030;2023-03-30T15:54:31;11.70;85.70
10911;DHT22;5508;49.150;11.030;2023-03-30T15:57:35;11.70;85.60
10911;DHT22;5508;49.150;11.030;2023-03-30T16:00:36;11.60;86.90
10911;DHT22;5508;49.150;11.030;2023-03-30T16:03:38;11.50;87.50
10911;DHT22;5508;49.150;11.030;2023-03-30T16:06:39;11.50;87.50
10911;DHT22;5508;49.150;11.030;2023-03-30T16:09:41;11.40;84.50
10911;DHT22;5508;49.150;11.030;2023-03-30T16:12:43;11.40;84.60
10911;DHT22;5508;49.150;11.030;2023-03-30T16:15:44;11.30;84.30
10911;DHT22;5508;49.150;11.030;2023-03-30T16:18:45;11.30;85.00
10911;DHT22;5508;49.150;11.030;2023-03-30T16:21:45;11.40;83.30
10911;DHT22;5508;49.150;11.030;2023-03-30T16:24:46;11.40;84.00
10911;DHT22;5508;49.150;11.030;2023-03-30T16:27:47;11.40;82.80
10911;DHT22;5508;49.150;11.030;2023-03-30T16:30:50;11.50;82.50
10911;DHT22;5508;49.150;11.030;2023-03-30T16:33:51;11.70;81.20
10911;DHT22;5508;49.150;11.030;2023-03-30T16:36:52;11.80;82.10
10911;DHT22;5508;49.150;11.030;2023-03-30T16:39:53;11.90;81.90
10911;DHT22;5508;49.150;11.030;2023-03-30T16:42:53;11.90;82.60
10911;DHT22;5508;49.150;11.030;2023-03-30T16:45:54;11.80;83.50
10911;DHT22;5508;49.150;11.030;2023-03-30T16:48:54;11.60;83.30
10911;DHT22;5508;49.150;11.030;2023-03-30T16:51:55;11.60;84.40
10911;DHT22;5508;49.150;11.030;2023-03-30T16:54:56;11.50;83.80
10911;DHT22;5508;49.150;11.030;2023-03-30T16:57:56;11.50;84.80
10911;DHT22;5508;49.150;11.030;2023-03-30T17:00:57;11.40;84.90
10911;DHT22;5508;49.150;11.030;2023-03-30T17:04:03;11.30;84.50
10911;DHT22;5508;49.150;11.030;2023-03-30T17:07:09;11.20;85.70
10911;DHT22;5508;49.150;11.030;2023-03-30T17:13:15;11.10;85.10
10911;DHT22;5508;49.150;11.030;2023-03-30T17:16:16;11.10;85.60
10911;DHT22;5508;49.150;11.030;2023-03-30T17:19:16;11.10;84.90
10911;DHT22;5508;49.150;11.030;2023-03-30T17:22:17;11.00;86.10
10911;DHT22;5508;49.150;11.030;2023-03-30T17:25:17;10.90;87.30
10911;DHT22;5508;49.150;11.030;2023-03-30T17:28:25;10.90;86.00
10911;DHT22;5508;49.150;11.030;2023-03-30T17:31:26;10.90;86.40
10911;DHT22;5508;49.150;11.030;2023-03-30T17:34:27;10.70;87.50
10911;DHT22;5508;49.150;11.030;2023-03-30T17:37:27;10.70;86.80
10911;DHT22;5508;49.150;11.030;2023-03-30T17:40:28;10.70;86.80
10911;DHT22;5508;49.150;11.030;2023-03-30T17:43:30;10.60;86.70
10911;DHT22;5508;49.150;11.030;2023-03-30T17:46:31;10.50;86.20
10911;DHT22;5508;49.150;11.030;2023-03-30T17:49:31;10.60;85.40
10911;DHT22;5508;49.150;11.030;2023-03-30T17:52:32;10.50;86.40
10911;DHT22;5508;49.150;11.030;2023-03-30T17:55:33;10.40;86.40
10911;DHT22;5508;49.150;11.030;2023-03-30T17:58:35;10.30;87.10
10911;DHT22;5508;49.150;11.030;2023-03-30T18:01:35;10.20;87.40
10911;DHT22;5508;49.150;11.030;2023-03-30T18:04:36;10.00;88.80
10911;DHT22;5508;49.150;11.030;2023-03-30T18:07:37;9.90;89.30
10911;DHT22;5508;49.150;11.030;2023-03-30T18:10:38;9.80;90.70
10911;DHT22;5508;49.150;11.030;2023-03-30T18:13:38;9.80;91.00
10911;DHT22;5508;49.150;11.030;2023-03-30T18:16:40;9.80;91.30
10911;DHT22;5508;49.150;11.030;2023-03-30T18:19:41;9.80;91.50
10911;DHT22;5508;49.150;11.030;2023-03-30T18:22:42;9.80;91.50
10911;DHT22;5508;49.150;11.030;2023-03-30T18:25:42;9.70;92.40
10911;DHT22;5508;49.150;11.030;2023-03-30T18:28:43;9.70;92.90
10911;DHT22;5508;49.150;11.030;2023-03-30T18:31:46;9.60;94.30
10911;DHT22;5508;49.150;11.030;2023-03-30T18:34:46;9.50;95.40
10911;DHT22;5508;49.150;11.030;2023-03-30T18:37:47;9.50;96.20
10911;DHT22;5508;49.150;11.030;2023-03-30T18:40:51;9.60;96.80
10911;DHT22;5508;49.150;11.030;2023-03-30T18:43:56;9.60;96.50
10911;DHT22;5508;49.150;11.030;2023-03-30T18:46:59;9.50;97.70
10911;DHT22;5508;49.150;11.030;2023-03-30T18:49:59;9.30;97.90
10911;DHT22;5508;49.150;11.030;2023-03-30T18:53:01;9.20;99.10
10911;DHT22;5508;49.150;11.030;2023-03-30T18:56:02;9.10;99.90
10911;DHT22;5508;49.150;11.030;2023-03-30T18:59:02;8.90;99.90
10911;DHT22;5508;49.150;11.030;2023-03-30T19:02:05;8.80;99.90
10911;DHT22;5508;49.150;11.030;2023-03-30T19:05:06;8.80;99.90
10911;DHT22;5508;49.150;11.030;2023-03-30T19:08:16;8.70;99.90
10911;DHT22;5508;49.150;11.030;2023-03-30T19:11:20;8.50;99.90
10911;DHT22;5508;49.150;11.030;2023-03-30T19:14:22;8.60;99.90
10911;DHT22;5508;49.150;11.030;2023-03-30T19:17:22;8.60;99.90
10911;DHT22;5508;49.150;11.030;2023-03-30T19:20:24;8.60;99.90
10911;DHT22;5508;49.150;11.030;2023-03-30T19:23:25;8.60;99.90
10911;DHT22;5508;49.150;11.030;2023-03-30T19:26:28;8.60;99.90
10911;DHT22;5508;49.150;11.030;2023-03-30T19:29:29;8.60;99.90
10911;DHT22;5508;49.150;11.030;2023-03-30T19:32:29;8.60;99.90
10911;DHT22;5508;49.150;11.030;2023-03-30T19:35:30;8.70;99.90
10911;DHT22;5508;49.150;11.030;2023-03-30T19:38:31;8.80;99.90
10911;DHT22;5508;49.150;11.030;2023-03-30T19:41:32;9.00;99.40
10911;DHT22;5508;49.150;11.030;2023-03-30T19:44:32;9.00;99.80
10911;DHT22;5508;49.150;11.030;2023-03-30T19:47:33;9.10;98.10
10911;DHT22;5508;49.150;11.030;2023-03-30T19:50:34;9.20;97.50
10911;DHT22;5508;49.150;11.030;2023-03-30T19:53:36;9.20;95.90
10911;DHT22;5508;49.150;11.030;2023-03-30T19:56:36;9.20;96.20
10911;DHT22;5508;49.150;11.030;2023-03-30T19:59:37;9.20;95.40
10911;DHT22;5508;49.150;11.030;2023-03-30T20:02:38;9.20;95.60
10911;DHT22;5508;49.150;11.030;2023-03-30T20:05:48;9.10;95.90
10911;DHT22;5508;49.150;11.030;2023-03-30T20:08:48;9.00;96.30
10911;DHT22;5508;49.150;11.030;2023-03-30T20:11:49;8.90;97.00
10911;DHT22;5508;49.150;11.030;2023-03-30T20:14:50;8.90;97.10
10911;DHT22;5508;49.150;11.030;2023-03-30T20:17:50;8.80;97.10
10911;DHT22;5508;49.150;11.030;2023-03-30T20:21:02;8.80;96.20
10911;DHT22;5508;49.150;11.030;2023-03-30T20:24:02;8.70;97.70
10911;DHT22;5508;49.150;11.030;2023-03-30T20:27:03;8.60;98.10
10911;DHT22;5508;49.150;11.030;2023-03-30T20:30:06;8.50;98.60
10911;DHT22;5508;49.150;11.030;2023-03-30T20:33:07;8.50;99.10
10911;DHT22;5508;49.150;11.030;2023-03-30T20:36:08;8.40;99.10
10911;DHT22;5508;49.150;11.030;2023-03-30T20:39:09;8.50;99.40
10911;DHT22;5508;49.150;11.030;2023-03-30T20:42:13;8.30;99.30
10911;DHT22;5508;49.150;11.030;2023-03-30T20:45:13;8.20;99.90
10911;DHT22;5508;49.150;11.030;2023-03-30T20:48:16;8.10;99.90
10911;DHT22;5508;49.150;11.030;2023-03-30T20:51:26;8.10;99.90
10911;DHT22;5508;49.150;11.030;2023-03-30T20:54:28;8.10;99.90
10911;DHT22;5508;49.150;11.030;2023-03-30T20:57:29;8.00;99.90
10911;DHT22;5508;49.150;11.030;2023-03-30T21:00:29;7.80;99.90
10911;DHT22;5508;49.150;11.030;2023-03-30T21:03:30;7.70;99.90
10911;DHT22;5508;49.150;11.030;2023-03-30T21:06:32;7.70;99.90
10911;DHT22;5508;49.150;11.030;2023-03-30T21:09:32;7.90;99.90
10911;DHT22;5508;49.150;11.030;2023-03-30T21:12:33;8.00;99.90
10911;DHT22;5508;49.150;11.030;2023-03-30T21:15:34;8.10;99.90
10911;DHT22;5508;49.150;11.030;2023-03-30T21:18:34;8.10;99.20
10911;DHT22;5508;49.150;11.030;2023-03-30T21:21:36;8.20;99.00
10911;DHT22;5508;49.150;11.030;2023-03-30T21:24:37;8.30;97.70
10911;DHT22;5508;49.150;11.030;2023-03-30T21:27:37;8.30;97.20
10911;DHT22;5508;49.150;11.030;2023-03-30T21:30:38;8.20;97.10
10911;DHT22;5508;49.150;11.030;2023-03-30T21:33:39;8.10;97.50